Aviation Discussion

000 FXUS63 KDTX 302259 AFDDTX AREA FORECAST DISCUSSION NATIONAL WEATHER SERVICE DETROIT/PONTIAC MI 659 PM EDT WED JUL 30 2014 .AVIATION... //DISCUSSION... THE EXISTING LOW VFR DIURNAL CU FIELD AND OVERALL PROSPECTS FOR SHOWER DEVELOPMENT WILL STEADILY DIMINISH WITH THE LOSS OF HEATING THIS EVENING. NOCTURNAL STABILITY WILL THEN YIELD TRANQUIL CONDITIONS TONIGHT AND EARLY THURSDAY. CLEAR SKIES BELOW 10K FT THROUGH THIS TIME. WEAK DAYTIME DESTABILIZATION WILL RESULT IN SOME HIGH BASED DIURNAL CU INTO THE AFTERNOON. VERY LOW PROBABILITY FOR SHOWER/THUNDERSTORM DEVELOPMENT THURSDAY AFTERNOON/EVENING. //DTW THRESHOLD THREATS... * NONE

KDTW 310308Z 3103/0106 VRB03KT P6SM FEW050 SCT100
FM311000 24005KT P6SM BKN100
FM311800 25009KT P6SM SCT050 SCT150
FM312300 23005KT P6SM SKC=

KDET 302338Z 3100/3124 27005KT P6SM FEW050 BKN100
FM311000 24005KT P6SM BKN100
FM311800 25009KT P6SM SCT050 SCT150
FM312300 23005KT P6SM SKC=

Cleveland Center Weather Service Unit (CWSU)
Mission:
Our main responsibility is to provide up to the minute weather information to FAA Supervisors and the ZOB Traffic Management Unit (TMU). Some of the products issued by the CWSU are the Center Weather Advisories (CWA) and the Meteorological Impact Statement (MIS). The CWA is an aviation weather warning for thunderstorms, severe icing or turbulence, and low IFR ceilings and visibility. The MIS is a 2-12 hour forecast for weather conditions, which are expected to impact ARTCC operations.
 
Operations:
The Cleveland Center Weather Service Unit (ZOB CWSU) is located at the Federal Aviation Administration (FAA) Air Route Traffic Control Center (ARTCC) in Oberlin, OH. Four National Weather Service meteorologists staff the office. Our hours of operation are from 6:00 A.M. to 9:30 P.M. daily.

Web Site Owner:
NOAA National Weather Service
Cleveland ARTCC Attn:CWSU
326 East Lorain Street
Oberlin, OH 44074
Web Administrator:Webmaster
Page last modified: 23 Feb 2013
Disclaimer
Credits
Glossary
Privacy Policy
About Our Organization
Career Opportunities